ISR725 LLBG-LHBP
Flight info
| Callsign | ISR725 |
|---|---|
| Flight time | 3h 3m |
| Altitude | 36000 |
| Route | SUVAS N128 OTHON UN128 PEREN UL863 EVIVI L863 OKANA DCT ESIRI DCT PARAK DCT KEZAL |
| Aircraft | A320/M-SDE2FGHIJ1LORVWY/S |
Departure
| Time | 2026-05-07 07:35 |
|---|---|
| Airport | Ben Gurion International Airport (LLBG) |
Arrival
| Time | 2026-05-07 10:38 |
|---|---|
| Airport | Budapest Liszt Ferenc International Airport (LHBP) |
| Time | Latitude | Longitude | Altitude | Speed | Heading |
|---|---|---|---|---|---|
| 2026-05-07 07:08 | 32.00186 | 34.87850 | 117 ft | 0 kts | 122° |
| 2026-05-07 07:25 | 32.00198 | 34.87827 | 117 ft | 4 kts | 122° |
| 2026-05-07 07:26 | 32.00212 | 34.87800 | 116 ft | 4 kts | 120° |
| 2026-05-07 07:26 | 32.00222 | 34.87778 | 116 ft | 4 kts | 89° |
| 2026-05-07 07:26 | 32.00213 | 34.87752 | 115 ft | 4 kts | 41° |
| 2026-05-07 07:26 | 32.00191 | 34.87734 | 118 ft | 3 kts | 33° |
| 2026-05-07 07:27 | 32.00170 | 34.87717 | 120 ft | 4 kts | 32° |
| 2026-05-07 07:27 | 32.00147 | 34.87700 | 116 ft | 4 kts | 31° |
| 2026-05-07 07:27 | 32.00124 | 34.87684 | 117 ft | 4 kts | 31° |
| 2026-05-07 07:27 | 32.00118 | 34.87680 | 116 ft | 2 kts | 31° |
| 2026-05-07 07:29 | 32.00131 | 34.87689 | 117 ft | 6 kts | 31° |
| 2026-05-07 07:29 | 32.00199 | 34.87738 | 118 ft | 15 kts | 31° |
| 2026-05-07 07:29 | 32.00306 | 34.87814 | 120 ft | 20 kts | 31° |
| 2026-05-07 07:29 | 32.00419 | 34.87896 | 118 ft | 19 kts | 32° |
| 2026-05-07 07:30 | 32.00511 | 34.87957 | 120 ft | 12 kts | 12° |
| 2026-05-07 07:30 | 32.00588 | 34.87922 | 118 ft | 13 kts | 3° |
| 2026-05-07 07:30 | 32.00648 | 34.87961 | 117 ft | 0 kts | 32° |
| 2026-05-07 07:30 | 32.00653 | 34.87965 | 116 ft | 4 kts | 32° |
| 2026-05-07 07:31 | 32.00689 | 34.87992 | 119 ft | 8 kts | 32° |
| 2026-05-07 07:31 | 32.00776 | 34.88055 | 119 ft | 19 kts | 32° |
| 2026-05-07 07:31 | 32.00913 | 34.88152 | 116 ft | 27 kts | 31° |
| 2026-05-07 07:31 | 32.01083 | 34.88275 | 120 ft | 29 kts | 31° |
| 2026-05-07 07:32 | 32.01250 | 34.88400 | 119 ft | 27 kts | 36° |
| 2026-05-07 07:32 | 32.01388 | 34.88559 | 117 ft | 28 kts | 53° |
| 2026-05-07 07:32 | 32.01480 | 34.88766 | 116 ft | 29 kts | 71° |
| 2026-05-07 07:32 | 32.01516 | 34.88964 | 118 ft | 24 kts | 79° |
| 2026-05-07 07:33 | 32.01543 | 34.89128 | 120 ft | 14 kts | 76° |
| 2026-05-07 07:33 | 32.01622 | 34.89157 | 116 ft | 14 kts | 349° |
| 2026-05-07 07:33 | 32.01720 | 34.89136 | 118 ft | 10 kts | 349° |
| 2026-05-07 07:33 | 32.01745 | 34.89088 | 119 ft | 9 kts | 259° |
| 2026-05-07 07:34 | 32.01714 | 34.88875 | 121 ft | 57 kts | 260° |
| 2026-05-07 07:34 | 32.01604 | 34.88166 | 120 ft | 116 kts | 260° |
| 2026-05-07 07:34 | 32.01433 | 34.87040 | 120 ft | 161 kts | 259° |
| 2026-05-07 07:34 | 32.01207 | 34.85665 | 487 ft | 169 kts | 262° |
| 2026-05-07 07:35 | 32.00950 | 34.84326 | 1063 ft | 168 kts | 258° |
| 2026-05-07 07:35 | 32.00675 | 34.82957 | 1533 ft | 170 kts | 258° |
| 2026-05-07 07:35 | 32.00401 | 34.81613 | 2044 ft | 171 kts | 260° |
| 2026-05-07 07:35 | 32.00120 | 34.80230 | 2517 ft | 172 kts | 259° |
| 2026-05-07 07:36 | 31.99831 | 34.78860 | 3007 ft | 174 kts | 259° |
| 2026-05-07 07:36 | 31.99544 | 34.77458 | 3404 ft | 180 kts | 260° |
| 2026-05-07 07:36 | 31.99258 | 34.75956 | 3645 ft | 196 kts | 264° |
| 2026-05-07 07:36 | 31.99243 | 34.74867 | 3791 ft | 207 kts | 279° |
| 2026-05-07 07:37 | 31.99639 | 34.73153 | 3969 ft | 231 kts | 292° |
| 2026-05-07 07:37 | 32.00219 | 34.71279 | 4254 ft | 255 kts | 292° |
| 2026-05-07 07:37 | 32.00860 | 34.69275 | 4835 ft | 266 kts | 292° |
| 2026-05-07 07:37 | 32.01454 | 34.67194 | 5564 ft | 270 kts | 288° |
| 2026-05-07 07:38 | 32.01976 | 34.65050 | 6328 ft | 274 kts | 286° |
| 2026-05-07 07:38 | 32.02476 | 34.62871 | 7053 ft | 277 kts | 285° |
| 2026-05-07 07:38 | 32.02972 | 34.60664 | 7786 ft | 279 kts | 285° |
| 2026-05-07 07:38 | 32.03468 | 34.58447 | 8523 ft | 281 kts | 285° |
| 2026-05-07 07:39 | 32.03970 | 34.56218 | 9259 ft | 283 kts | 285° |
| 2026-05-07 07:39 | 32.04481 | 34.53971 | 9985 ft | 285 kts | 285° |
| 2026-05-07 07:39 | 32.05009 | 34.51668 | 10332 ft | 302 kts | 285° |
| 2026-05-07 07:39 | 32.05577 | 34.49192 | 10460 ft | 323 kts | 285° |
| 2026-05-07 07:40 | 32.06174 | 34.46588 | 10834 ft | 334 kts | 285° |
| 2026-05-07 07:40 | 32.06781 | 34.43932 | 11418 ft | 337 kts | 285° |
| 2026-05-07 07:40 | 32.07403 | 34.41213 | 12050 ft | 340 kts | 285° |
| 2026-05-07 07:40 | 32.08015 | 34.38551 | 12660 ft | 342 kts | 285° |
| 2026-05-07 07:41 | 32.08642 | 34.35834 | 13281 ft | 345 kts | 285° |
| 2026-05-07 07:41 | 32.09282 | 34.33063 | 13909 ft | 347 kts | 285° |
| 2026-05-07 07:41 | 32.09914 | 34.30306 | 14453 ft | 349 kts | 285° |
| 2026-05-07 07:41 | 32.10548 | 34.27531 | 14991 ft | 351 kts | 285° |
| 2026-05-07 07:42 | 32.11182 | 34.24741 | 15544 ft | 353 kts | 285° |
| 2026-05-07 07:42 | 32.11818 | 34.21933 | 16079 ft | 355 kts | 285° |
| 2026-05-07 07:42 | 32.12456 | 34.19115 | 16617 ft | 357 kts | 285° |
| 2026-05-07 07:42 | 32.13100 | 34.16277 | 17153 ft | 359 kts | 285° |
| 2026-05-07 07:43 | 32.13748 | 34.13422 | 17694 ft | 361 kts | 285° |
| 2026-05-07 07:43 | 32.14398 | 34.10554 | 18244 ft | 363 kts | 285° |
| 2026-05-07 07:43 | 32.15053 | 34.07658 | 18739 ft | 366 kts | 285° |
| 2026-05-07 07:43 | 32.15708 | 34.04749 | 19212 ft | 368 kts | 285° |
| 2026-05-07 07:44 | 32.16373 | 34.01815 | 19694 ft | 371 kts | 286° |
| 2026-05-07 07:44 | 32.17299 | 33.98970 | 20153 ft | 374 kts | 297° |
| 2026-05-07 07:44 | 32.18691 | 33.96361 | 20640 ft | 377 kts | 304° |
| 2026-05-07 07:44 | 32.20228 | 33.93840 | 21121 ft | 379 kts | 305° |
| 2026-05-07 07:45 | 32.21770 | 33.91302 | 21591 ft | 381 kts | 305° |
| 2026-05-07 07:45 | 32.23314 | 33.88741 | 22057 ft | 384 kts | 304° |
| 2026-05-07 07:45 | 32.24858 | 33.86163 | 22495 ft | 386 kts | 304° |
| 2026-05-07 07:45 | 32.26412 | 33.83562 | 22940 ft | 388 kts | 304° |
| 2026-05-07 07:46 | 32.27975 | 33.80951 | 23391 ft | 390 kts | 304° |
| 2026-05-07 07:46 | 32.29547 | 33.78331 | 23793 ft | 392 kts | 304° |
| 2026-05-07 07:46 | 32.31128 | 33.75699 | 24147 ft | 394 kts | 304° |
| 2026-05-07 07:46 | 32.32718 | 33.73051 | 24492 ft | 396 kts | 304° |
| 2026-05-07 07:47 | 32.34319 | 33.70388 | 24826 ft | 398 kts | 304° |
| 2026-05-07 07:47 | 32.35926 | 33.67715 | 25161 ft | 400 kts | 304° |
| 2026-05-07 07:47 | 32.37539 | 33.65027 | 25501 ft | 401 kts | 304° |
| 2026-05-07 07:47 | 32.39157 | 33.62327 | 25827 ft | 403 kts | 304° |
| 2026-05-07 07:48 | 32.40778 | 33.59615 | 26146 ft | 405 kts | 304° |
| 2026-05-07 07:48 | 32.42408 | 33.56883 | 26457 ft | 407 kts | 304° |
| 2026-05-07 07:48 | 32.44064 | 33.54102 | 26765 ft | 409 kts | 304° |
| 2026-05-07 07:48 | 32.45684 | 33.51381 | 27073 ft | 411 kts | 304° |
| 2026-05-07 07:49 | 32.47357 | 33.48575 | 27375 ft | 413 kts | 304° |
| 2026-05-07 07:49 | 32.49014 | 33.45794 | 27676 ft | 415 kts | 304° |
| 2026-05-07 07:49 | 32.50679 | 33.42998 | 27972 ft | 416 kts | 304° |
| 2026-05-07 07:49 | 32.52355 | 33.40185 | 28271 ft | 418 kts | 304° |
| 2026-05-07 07:50 | 32.54038 | 33.37363 | 28568 ft | 420 kts | 304° |
| 2026-05-07 07:50 | 32.55719 | 33.34543 | 28998 ft | 419 kts | 304° |
| 2026-05-07 07:50 | 32.57393 | 33.31724 | 29426 ft | 417 kts | 304° |
| 2026-05-07 07:50 | 32.59059 | 33.28909 | 29852 ft | 416 kts | 303° |
| 2026-05-07 07:51 | 32.60720 | 33.26100 | 30270 ft | 416 kts | 303° |
| 2026-05-07 07:51 | 32.62381 | 33.23296 | 30617 ft | 415 kts | 303° |
| 2026-05-07 07:51 | 32.64037 | 33.20500 | 30970 ft | 414 kts | 303° |
| 2026-05-07 07:51 | 32.65689 | 33.17707 | 31321 ft | 413 kts | 303° |
| 2026-05-07 07:52 | 32.67337 | 33.14916 | 31683 ft | 412 kts | 303° |
| 2026-05-07 07:52 | 32.68978 | 33.12136 | 32064 ft | 411 kts | 303° |
| 2026-05-07 07:52 | 32.70615 | 33.09362 | 32437 ft | 410 kts | 303° |
| 2026-05-07 07:52 | 32.72247 | 33.06595 | 32819 ft | 408 kts | 303° |
| 2026-05-07 07:53 | 32.73867 | 33.03843 | 33248 ft | 406 kts | 303° |
| 2026-05-07 07:53 | 32.75482 | 33.01104 | 33646 ft | 404 kts | 303° |
| 2026-05-07 07:53 | 32.77092 | 32.98376 | 33998 ft | 403 kts | 303° |
| 2026-05-07 07:53 | 32.78695 | 32.95652 | 34303 ft | 402 kts | 303° |
| 2026-05-07 07:54 | 32.80294 | 32.92926 | 34560 ft | 401 kts | 303° |
| 2026-05-07 07:54 | 32.81888 | 32.90207 | 34784 ft | 401 kts | 303° |
| 2026-05-07 07:54 | 32.83508 | 32.87444 | 35013 ft | 401 kts | 303° |
| 2026-05-07 07:54 | 32.85103 | 32.84720 | 35240 ft | 401 kts | 303° |
| 2026-05-07 07:55 | 32.86679 | 32.82031 | 35445 ft | 402 kts | 303° |
| 2026-05-07 07:55 | 32.88298 | 32.79272 | 35660 ft | 402 kts | 303° |
| 2026-05-07 07:55 | 32.89896 | 32.76544 | 35861 ft | 402 kts | 303° |
| 2026-05-07 07:55 | 32.91491 | 32.73815 | 36049 ft | 402 kts | 303° |
| 2026-05-07 07:56 | 32.93088 | 32.71077 | 36144 ft | 404 kts | 303° |
| 2026-05-07 07:56 | 32.96332 | 32.65507 | 36153 ft | 414 kts | 303° |
| 2026-05-07 07:57 | 32.99651 | 32.59805 | 36157 ft | 424 kts | 303° |
| 2026-05-07 07:57 | 33.03043 | 32.53972 | 36155 ft | 432 kts | 303° |
| 2026-05-07 07:58 | 33.06476 | 32.48068 | 36157 ft | 434 kts | 303° |
| 2026-05-07 07:58 | 33.09916 | 32.42151 | 36157 ft | 434 kts | 303° |
| 2026-05-07 07:59 | 33.13349 | 32.36222 | 36157 ft | 434 kts | 303° |
| 2026-05-07 07:59 | 33.16773 | 32.30282 | 36165 ft | 434 kts | 303° |
| 2026-05-07 08:00 | 33.20201 | 32.24341 | 36184 ft | 434 kts | 303° |
| 2026-05-07 08:00 | 33.23624 | 32.18404 | 36187 ft | 434 kts | 303° |
| 2026-05-07 08:01 | 33.27039 | 32.12463 | 36190 ft | 434 kts | 303° |
| 2026-05-07 08:01 | 33.30455 | 32.06519 | 36192 ft | 434 kts | 303° |
| 2026-05-07 08:02 | 33.33866 | 32.00577 | 36189 ft | 433 kts | 303° |
| 2026-05-07 08:02 | 33.37267 | 31.94638 | 36189 ft | 433 kts | 303° |
| 2026-05-07 08:03 | 33.40686 | 31.88648 | 36190 ft | 433 kts | 303° |
| 2026-05-07 08:03 | 33.44077 | 31.82705 | 36188 ft | 432 kts | 303° |
| 2026-05-07 08:04 | 33.47471 | 31.76758 | 36183 ft | 432 kts | 303° |
| 2026-05-07 08:04 | 33.50854 | 31.70805 | 36189 ft | 432 kts | 303° |
| 2026-05-07 08:05 | 33.54233 | 31.64853 | 36191 ft | 432 kts | 303° |
| 2026-05-07 08:05 | 33.57609 | 31.58896 | 36191 ft | 432 kts | 303° |
| 2026-05-07 08:06 | 33.60989 | 31.52933 | 36188 ft | 432 kts | 303° |
| 2026-05-07 08:06 | 33.64352 | 31.46976 | 36203 ft | 431 kts | 303° |
| 2026-05-07 08:07 | 33.67713 | 31.41014 | 36201 ft | 431 kts | 303° |
| 2026-05-07 08:07 | 33.71065 | 31.35060 | 36197 ft | 430 kts | 303° |
| 2026-05-07 08:08 | 33.74415 | 31.29111 | 36195 ft | 430 kts | 303° |
| 2026-05-07 08:08 | 33.77755 | 31.23154 | 36194 ft | 430 kts | 303° |
| 2026-05-07 08:09 | 33.81093 | 31.17199 | 36201 ft | 429 kts | 303° |
| 2026-05-07 08:09 | 33.84429 | 31.11254 | 36200 ft | 429 kts | 303° |
| 2026-05-07 08:10 | 33.87218 | 31.06267 | 36201 ft | 429 kts | 303° |
| 2026-05-07 08:10 | 33.90535 | 31.00301 | 36201 ft | 428 kts | 303° |
| 2026-05-07 08:11 | 33.93849 | 30.94346 | 36201 ft | 428 kts | 303° |
| 2026-05-07 08:11 | 33.97169 | 30.88393 | 36203 ft | 428 kts | 303° |
| 2026-05-07 08:12 | 34.00479 | 30.82441 | 36203 ft | 427 kts | 303° |
| 2026-05-07 08:12 | 34.03776 | 30.76482 | 36202 ft | 427 kts | 303° |
| 2026-05-07 08:13 | 34.07073 | 30.70520 | 36202 ft | 427 kts | 303° |
| 2026-05-07 08:13 | 34.10363 | 30.64568 | 36211 ft | 426 kts | 303° |
| 2026-05-07 08:14 | 34.13647 | 30.58615 | 36208 ft | 426 kts | 303° |
| 2026-05-07 08:14 | 34.16920 | 30.52662 | 36206 ft | 425 kts | 303° |
| 2026-05-07 08:15 | 34.20189 | 30.46705 | 36209 ft | 425 kts | 303° |
| 2026-05-07 08:15 | 34.23456 | 30.40756 | 36208 ft | 425 kts | 303° |
| 2026-05-07 08:16 | 34.26735 | 30.34761 | 36203 ft | 424 kts | 303° |
| 2026-05-07 08:16 | 34.29988 | 30.28808 | 36205 ft | 424 kts | 303° |
| 2026-05-07 08:17 | 34.33242 | 30.22858 | 36206 ft | 424 kts | 303° |
| 2026-05-07 08:17 | 34.36489 | 30.16908 | 36206 ft | 424 kts | 303° |
| 2026-05-07 08:18 | 34.39727 | 30.10945 | 36203 ft | 424 kts | 303° |
| 2026-05-07 08:18 | 34.42959 | 30.04978 | 36208 ft | 423 kts | 303° |
| 2026-05-07 08:19 | 34.46358 | 29.99171 | 36207 ft | 423 kts | 312° |
| 2026-05-07 08:19 | 34.50487 | 29.94087 | 36209 ft | 423 kts | 314° |
| 2026-05-07 08:20 | 34.54620 | 29.89005 | 36203 ft | 423 kts | 314° |
| 2026-05-07 08:20 | 34.58745 | 29.83906 | 36205 ft | 423 kts | 314° |
| 2026-05-07 08:21 | 34.62865 | 29.78810 | 36205 ft | 423 kts | 314° |
| 2026-05-07 08:21 | 34.66988 | 29.73717 | 36208 ft | 422 kts | 314° |
| 2026-05-07 08:22 | 34.71099 | 29.68630 | 36210 ft | 422 kts | 314° |
| 2026-05-07 08:22 | 34.75207 | 29.63530 | 36211 ft | 422 kts | 314° |
| 2026-05-07 08:23 | 34.79334 | 29.58399 | 36206 ft | 422 kts | 314° |
| 2026-05-07 08:23 | 34.83430 | 29.53285 | 36208 ft | 421 kts | 314° |
| 2026-05-07 08:24 | 34.87519 | 29.48178 | 36212 ft | 421 kts | 314° |
| 2026-05-07 08:24 | 34.91608 | 29.43084 | 36208 ft | 420 kts | 314° |
| 2026-05-07 08:25 | 34.95686 | 29.37994 | 36211 ft | 420 kts | 314° |
| 2026-05-07 08:25 | 34.99829 | 29.32981 | 36205 ft | 420 kts | 321° |
| 2026-05-07 08:26 | 35.06838 | 29.26590 | 36206 ft | 420 kts | 322° |
| 2026-05-07 08:26 | 35.11519 | 29.22319 | 36198 ft | 419 kts | 322° |
| 2026-05-07 08:27 | 35.16189 | 29.18055 | 36220 ft | 419 kts | 322° |
| 2026-05-07 08:27 | 35.20854 | 29.13790 | 36214 ft | 419 kts | 322° |
| 2026-05-07 08:28 | 35.25515 | 29.09524 | 36207 ft | 418 kts | 322° |
| 2026-05-07 08:28 | 35.30165 | 29.05249 | 36206 ft | 418 kts | 322° |
| 2026-05-07 08:29 | 35.34812 | 29.00977 | 36204 ft | 418 kts | 322° |
| 2026-05-07 08:29 | 35.39460 | 28.96694 | 36204 ft | 418 kts | 322° |
| 2026-05-07 08:30 | 35.44134 | 28.92384 | 36200 ft | 417 kts | 322° |
| 2026-05-07 08:30 | 35.48768 | 28.88110 | 36208 ft | 416 kts | 322° |
| 2026-05-07 08:31 | 35.53394 | 28.83834 | 36209 ft | 416 kts | 322° |
| 2026-05-07 08:31 | 35.58009 | 28.79559 | 36203 ft | 416 kts | 322° |
| 2026-05-07 08:32 | 35.62620 | 28.75273 | 36204 ft | 415 kts | 322° |
| 2026-05-07 08:32 | 35.67233 | 28.70992 | 36202 ft | 415 kts | 322° |
| 2026-05-07 08:33 | 35.71846 | 28.66707 | 36197 ft | 415 kts | 322° |
| 2026-05-07 08:33 | 35.76448 | 28.62425 | 36205 ft | 414 kts | 322° |
| 2026-05-07 08:34 | 35.81038 | 28.58136 | 36204 ft | 414 kts | 322° |
| 2026-05-07 08:34 | 35.85617 | 28.53843 | 36201 ft | 413 kts | 322° |
| 2026-05-07 08:35 | 35.90199 | 28.49566 | 36203 ft | 413 kts | 322° |
| 2026-05-07 08:35 | 35.94777 | 28.45278 | 36199 ft | 413 kts | 322° |
| 2026-05-07 08:36 | 35.99058 | 28.41256 | 36196 ft | 413 kts | 322° |
| 2026-05-07 08:36 | 36.03626 | 28.36958 | 36203 ft | 413 kts | 322° |
| 2026-05-07 08:37 | 36.06002 | 28.34745 | 36187 ft | 412 kts | 322° |
| 2026-05-07 08:37 | 36.10565 | 28.30451 | 36194 ft | 411 kts | 322° |
| 2026-05-07 08:38 | 36.14263 | 28.26935 | 36191 ft | 411 kts | 322° |
| 2026-05-07 08:38 | 36.19202 | 28.22250 | 36187 ft | 411 kts | 322° |
| 2026-05-07 08:39 | 36.23053 | 28.18603 | 36185 ft | 410 kts | 322° |
| 2026-05-07 08:39 | 36.27585 | 28.14299 | 36179 ft | 410 kts | 322° |
| 2026-05-07 08:40 | 36.31620 | 28.10459 | 36190 ft | 410 kts | 322° |
| 2026-05-07 08:40 | 36.36487 | 28.06793 | 36199 ft | 412 kts | 333° |
| 2026-05-07 08:41 | 36.41707 | 28.03875 | 36189 ft | 411 kts | 333° |
| 2026-05-07 08:41 | 36.46924 | 28.00964 | 36190 ft | 411 kts | 333° |
| 2026-05-07 08:42 | 36.48632 | 28.00010 | 36190 ft | 411 kts | 333° |
| 2026-05-07 08:42 | 36.50954 | 27.98687 | 36181 ft | 411 kts | 333° |
| 2026-05-07 08:43 | 36.55358 | 27.96341 | 36183 ft | 411 kts | 335° |
| 2026-05-07 08:43 | 36.60668 | 27.93665 | 36188 ft | 412 kts | 335° |
| 2026-05-07 08:44 | 36.62897 | 27.92541 | 36187 ft | 412 kts | 335° |
| 2026-05-07 08:44 | 36.66405 | 27.90748 | 36181 ft | 412 kts | 335° |
| 2026-05-07 08:45 | 36.68013 | 27.89945 | 36185 ft | 412 kts | 336° |
| 2026-05-07 08:45 | 36.73304 | 27.87211 | 36187 ft | 411 kts | 334° |
| 2026-05-07 08:46 | 36.78487 | 27.84366 | 36185 ft | 411 kts | 334° |
| 2026-05-07 08:46 | 36.83728 | 27.81505 | 36193 ft | 411 kts | 334° |
| 2026-05-07 08:47 | 36.88985 | 27.78676 | 36189 ft | 411 kts | 334° |
| 2026-05-07 08:47 | 36.94249 | 27.75854 | 36189 ft | 412 kts | 334° |
| 2026-05-07 08:48 | 36.99516 | 27.73026 | 36186 ft | 412 kts | 334° |
| 2026-05-07 08:48 | 37.04775 | 27.70186 | 36189 ft | 412 kts | 334° |
| 2026-05-07 08:49 | 37.10038 | 27.67348 | 36199 ft | 412 kts | 334° |
| 2026-05-07 08:49 | 37.15295 | 27.64508 | 36193 ft | 412 kts | 334° |
| 2026-05-07 08:50 | 37.20559 | 27.61657 | 36188 ft | 412 kts | 334° |
| 2026-05-07 08:50 | 37.25820 | 27.58796 | 36186 ft | 412 kts | 334° |
| 2026-05-07 08:51 | 37.31125 | 27.55934 | 36181 ft | 412 kts | 335° |
| 2026-05-07 08:51 | 37.36425 | 27.53168 | 36181 ft | 412 kts | 335° |
| 2026-05-07 08:52 | 37.41723 | 27.50417 | 36181 ft | 412 kts | 335° |
| 2026-05-07 08:52 | 37.47022 | 27.47643 | 36179 ft | 412 kts | 335° |
| 2026-05-07 08:53 | 37.52305 | 27.44825 | 36169 ft | 412 kts | 333° |
| 2026-05-07 08:53 | 37.57528 | 27.41823 | 36183 ft | 412 kts | 333° |
| 2026-05-07 08:54 | 37.62732 | 27.38769 | 36182 ft | 413 kts | 333° |
| 2026-05-07 08:54 | 37.67974 | 27.35811 | 36184 ft | 413 kts | 334° |
| 2026-05-07 08:55 | 37.73263 | 27.32958 | 36177 ft | 414 kts | 334° |
| 2026-05-07 08:55 | 37.78554 | 27.30100 | 36180 ft | 413 kts | 334° |
| 2026-05-07 08:56 | 37.83836 | 27.27216 | 36186 ft | 413 kts | 334° |
| 2026-05-07 08:56 | 37.89114 | 27.24317 | 36187 ft | 414 kts | 334° |
| 2026-05-07 08:57 | 37.94391 | 27.21408 | 36187 ft | 414 kts | 334° |
| 2026-05-07 08:57 | 37.99670 | 27.18493 | 36182 ft | 414 kts | 334° |
| 2026-05-07 08:58 | 38.04944 | 27.15584 | 36178 ft | 414 kts | 334° |
| 2026-05-07 08:58 | 38.10235 | 27.12663 | 36181 ft | 415 kts | 334° |
| 2026-05-07 08:59 | 38.15564 | 27.09714 | 36179 ft | 415 kts | 334° |
| 2026-05-07 08:59 | 38.20858 | 27.06775 | 36181 ft | 415 kts | 334° |
| 2026-05-07 09:00 | 38.26152 | 27.03829 | 36178 ft | 416 kts | 334° |
| 2026-05-07 09:00 | 38.31389 | 27.00733 | 36192 ft | 414 kts | 326° |
| 2026-05-07 09:01 | 38.35865 | 26.96177 | 36180 ft | 412 kts | 318° |
| 2026-05-07 09:01 | 38.40193 | 26.91386 | 36175 ft | 412 kts | 318° |
| 2026-05-07 09:02 | 38.44542 | 26.86594 | 36155 ft | 413 kts | 318° |
| 2026-05-07 09:02 | 38.48886 | 26.81790 | 36157 ft | 414 kts | 318° |
| 2026-05-07 09:03 | 38.53247 | 26.76957 | 36164 ft | 415 kts | 317° |
| 2026-05-07 09:03 | 38.57605 | 26.72120 | 36166 ft | 415 kts | 317° |
| 2026-05-07 09:04 | 38.61965 | 26.67264 | 36178 ft | 416 kts | 317° |
| 2026-05-07 09:04 | 38.66330 | 26.62394 | 36173 ft | 416 kts | 317° |
| 2026-05-07 09:05 | 38.70691 | 26.57524 | 36173 ft | 417 kts | 317° |
| 2026-05-07 09:05 | 38.75065 | 26.52629 | 36152 ft | 418 kts | 317° |
| 2026-05-07 09:06 | 38.79446 | 26.47720 | 36156 ft | 419 kts | 317° |
| 2026-05-07 09:06 | 38.83831 | 26.42796 | 36166 ft | 419 kts | 317° |
| 2026-05-07 09:07 | 38.88299 | 26.37971 | 36179 ft | 420 kts | 319° |
| 2026-05-07 09:07 | 38.92861 | 26.33199 | 36179 ft | 421 kts | 319° |
| 2026-05-07 09:08 | 38.97390 | 26.28442 | 36179 ft | 421 kts | 319° |
| 2026-05-07 09:08 | 39.01904 | 26.23640 | 36164 ft | 421 kts | 318° |
| 2026-05-07 09:09 | 39.06403 | 26.18822 | 36162 ft | 422 kts | 318° |
| 2026-05-07 09:09 | 39.10918 | 26.13989 | 36163 ft | 422 kts | 318° |
| 2026-05-07 09:10 | 39.15432 | 26.09154 | 36165 ft | 422 kts | 318° |
| 2026-05-07 09:10 | 39.19948 | 26.04315 | 36173 ft | 422 kts | 318° |
| 2026-05-07 09:11 | 39.24465 | 25.99468 | 36168 ft | 423 kts | 318° |
| 2026-05-07 09:11 | 39.28978 | 25.94607 | 36163 ft | 423 kts | 318° |
| 2026-05-07 09:12 | 39.33466 | 25.89693 | 36151 ft | 423 kts | 317° |
| 2026-05-07 09:12 | 39.37913 | 25.84705 | 36152 ft | 423 kts | 317° |
| 2026-05-07 09:13 | 39.42355 | 25.79705 | 36161 ft | 424 kts | 317° |
| 2026-05-07 09:13 | 39.46819 | 25.74706 | 36153 ft | 424 kts | 317° |
| 2026-05-07 09:14 | 39.51289 | 25.69715 | 36165 ft | 424 kts | 317° |
| 2026-05-07 09:14 | 39.55783 | 25.64673 | 36159 ft | 424 kts | 317° |
| 2026-05-07 09:15 | 39.60244 | 25.59653 | 36148 ft | 425 kts | 316° |
| 2026-05-07 09:15 | 39.64718 | 25.54607 | 36142 ft | 426 kts | 316° |
| 2026-05-07 09:16 | 39.68437 | 25.50408 | 36153 ft | 427 kts | 316° |
| 2026-05-07 09:16 | 39.72920 | 25.45346 | 36158 ft | 427 kts | 316° |
| 2026-05-07 09:17 | 39.77400 | 25.40276 | 36154 ft | 427 kts | 316° |
| 2026-05-07 09:17 | 39.81881 | 25.35197 | 36148 ft | 428 kts | 316° |
| 2026-05-07 09:18 | 39.86363 | 25.30105 | 36124 ft | 428 kts | 316° |
| 2026-05-07 09:18 | 39.90848 | 25.24990 | 36123 ft | 428 kts | 314° |
| 2026-05-07 09:19 | 39.94521 | 25.18972 | 36119 ft | 424 kts | 303° |
| 2026-05-07 09:19 | 39.97927 | 25.12672 | 36118 ft | 425 kts | 303° |
| 2026-05-07 09:20 | 40.01388 | 25.06359 | 36130 ft | 426 kts | 303° |
| 2026-05-07 09:20 | 40.04796 | 25.00096 | 36137 ft | 426 kts | 303° |
| 2026-05-07 09:21 | 40.08228 | 24.93729 | 36148 ft | 426 kts | 303° |
| 2026-05-07 09:21 | 40.11634 | 24.87383 | 36148 ft | 427 kts | 303° |
| 2026-05-07 09:22 | 40.15040 | 24.81038 | 36153 ft | 427 kts | 303° |
| 2026-05-07 09:22 | 40.18453 | 24.74680 | 36146 ft | 427 kts | 303° |
| 2026-05-07 09:23 | 40.21861 | 24.68317 | 36149 ft | 427 kts | 302° |
| 2026-05-07 09:23 | 40.25262 | 24.61952 | 36154 ft | 427 kts | 303° |
| 2026-05-07 09:24 | 40.28658 | 24.55578 | 36143 ft | 427 kts | 302° |
| 2026-05-07 09:24 | 40.32046 | 24.49203 | 36149 ft | 427 kts | 302° |
| 2026-05-07 09:25 | 40.35435 | 24.42816 | 36162 ft | 427 kts | 302° |
| 2026-05-07 09:25 | 40.38831 | 24.36414 | 36151 ft | 428 kts | 302° |
| 2026-05-07 09:26 | 40.42224 | 24.30004 | 36147 ft | 428 kts | 302° |
| 2026-05-07 09:26 | 40.45615 | 24.23580 | 36151 ft | 428 kts | 302° |
| 2026-05-07 09:27 | 40.48999 | 24.17141 | 36150 ft | 428 kts | 302° |
| 2026-05-07 09:28 | 40.54092 | 24.07435 | 36148 ft | 429 kts | 302° |
| 2026-05-07 09:28 | 40.57489 | 24.00982 | 36148 ft | 429 kts | 304° |
| 2026-05-07 09:29 | 40.61860 | 23.95592 | 36141 ft | 438 kts | 324° |
| 2026-05-07 09:29 | 40.67334 | 23.91976 | 36150 ft | 441 kts | 330° |
| 2026-05-07 09:30 | 40.72888 | 23.88492 | 36145 ft | 442 kts | 330° |
| 2026-05-07 09:30 | 40.78437 | 23.84985 | 36139 ft | 442 kts | 330° |
| 2026-05-07 09:31 | 40.83990 | 23.81472 | 36141 ft | 443 kts | 330° |
| 2026-05-07 09:31 | 40.89555 | 23.77967 | 36144 ft | 443 kts | 330° |
| 2026-05-07 09:32 | 40.95117 | 23.74451 | 36151 ft | 444 kts | 330° |
| 2026-05-07 09:32 | 41.00692 | 23.70907 | 36146 ft | 444 kts | 330° |
| 2026-05-07 09:33 | 41.06263 | 23.67358 | 36143 ft | 445 kts | 330° |
| 2026-05-07 09:33 | 41.11847 | 23.63808 | 36143 ft | 445 kts | 330° |
| 2026-05-07 09:34 | 41.17438 | 23.60252 | 36155 ft | 445 kts | 330° |
| 2026-05-07 09:34 | 41.23013 | 23.56687 | 36147 ft | 445 kts | 330° |
| 2026-05-07 09:35 | 41.28634 | 23.53075 | 36147 ft | 446 kts | 330° |
| 2026-05-07 09:35 | 41.34212 | 23.49479 | 36145 ft | 446 kts | 330° |
| 2026-05-07 09:36 | 41.39802 | 23.45872 | 36164 ft | 446 kts | 330° |
| 2026-05-07 09:36 | 41.45374 | 23.42266 | 36168 ft | 446 kts | 330° |
| 2026-05-07 09:37 | 41.50945 | 23.38629 | 36168 ft | 446 kts | 329° |
| 2026-05-07 09:37 | 41.56511 | 23.34977 | 36166 ft | 446 kts | 329° |
| 2026-05-07 09:38 | 41.62079 | 23.31335 | 36170 ft | 446 kts | 330° |
| 2026-05-07 09:38 | 41.66999 | 23.28118 | 36168 ft | 446 kts | 330° |
| 2026-05-07 09:39 | 41.72239 | 23.24685 | 36161 ft | 446 kts | 330° |
| 2026-05-07 09:39 | 41.77809 | 23.21018 | 36169 ft | 446 kts | 329° |
| 2026-05-07 09:40 | 41.83379 | 23.17343 | 36174 ft | 447 kts | 329° |
| 2026-05-07 09:40 | 41.88967 | 23.13646 | 36164 ft | 447 kts | 329° |
| 2026-05-07 09:41 | 41.94540 | 23.09955 | 36167 ft | 448 kts | 329° |
| 2026-05-07 09:41 | 42.00141 | 23.06249 | 36147 ft | 448 kts | 329° |
| 2026-05-07 09:42 | 42.05777 | 23.02509 | 36155 ft | 449 kts | 329° |
| 2026-05-07 09:42 | 42.11380 | 22.98786 | 36153 ft | 449 kts | 329° |
| 2026-05-07 09:43 | 42.16984 | 22.95042 | 36158 ft | 449 kts | 329° |
| 2026-05-07 09:43 | 42.22577 | 22.91294 | 36157 ft | 450 kts | 329° |
| 2026-05-07 09:44 | 42.28189 | 22.87535 | 36161 ft | 450 kts | 329° |
| 2026-05-07 09:44 | 42.33800 | 22.83776 | 36159 ft | 450 kts | 329° |
| 2026-05-07 09:45 | 42.39406 | 22.80006 | 36152 ft | 450 kts | 329° |
| 2026-05-07 09:45 | 42.45019 | 22.76228 | 36153 ft | 451 kts | 329° |
| 2026-05-07 09:46 | 42.50640 | 22.72431 | 36141 ft | 452 kts | 329° |
| 2026-05-07 09:46 | 42.56272 | 22.68624 | 36144 ft | 453 kts | 329° |
| 2026-05-07 09:47 | 42.61913 | 22.64800 | 36150 ft | 453 kts | 329° |
| 2026-05-07 09:47 | 42.67553 | 22.60980 | 36151 ft | 453 kts | 329° |
| 2026-05-07 09:48 | 42.73182 | 22.57147 | 36161 ft | 453 kts | 329° |
| 2026-05-07 09:48 | 42.78822 | 22.53301 | 36158 ft | 453 kts | 329° |
| 2026-05-07 09:49 | 42.84457 | 22.49450 | 36170 ft | 453 kts | 328° |
| 2026-05-07 09:49 | 42.89187 | 22.46218 | 36158 ft | 453 kts | 329° |
| 2026-05-07 09:50 | 42.94837 | 22.42380 | 36159 ft | 454 kts | 329° |
| 2026-05-07 09:50 | 43.00488 | 22.38535 | 36158 ft | 454 kts | 329° |
| 2026-05-07 09:51 | 43.06127 | 22.34686 | 36158 ft | 453 kts | 329° |
| 2026-05-07 09:51 | 43.11771 | 22.30821 | 36159 ft | 453 kts | 329° |
| 2026-05-07 09:52 | 43.17404 | 22.26965 | 36155 ft | 453 kts | 329° |
| 2026-05-07 09:52 | 43.23040 | 22.23099 | 36156 ft | 453 kts | 329° |
| 2026-05-07 09:53 | 43.28673 | 22.19223 | 36150 ft | 453 kts | 329° |
| 2026-05-07 09:53 | 43.34314 | 22.15323 | 36158 ft | 454 kts | 329° |
| 2026-05-07 09:54 | 43.39967 | 22.11415 | 36138 ft | 456 kts | 329° |
| 2026-05-07 09:54 | 43.45677 | 22.07465 | 36129 ft | 457 kts | 328° |
| 2026-05-07 09:55 | 43.51361 | 22.03513 | 36130 ft | 458 kts | 328° |
| 2026-05-07 09:55 | 43.57050 | 21.99555 | 36133 ft | 458 kts | 328° |
| 2026-05-07 09:56 | 43.62740 | 21.95588 | 36134 ft | 458 kts | 328° |
| 2026-05-07 09:56 | 43.68426 | 21.91622 | 36134 ft | 458 kts | 328° |
| 2026-05-07 09:57 | 43.74104 | 21.87644 | 36132 ft | 457 kts | 328° |
| 2026-05-07 09:57 | 43.79774 | 21.83657 | 36129 ft | 457 kts | 328° |
| 2026-05-07 09:58 | 43.85445 | 21.79669 | 36140 ft | 457 kts | 328° |
| 2026-05-07 09:58 | 43.91130 | 21.75671 | 36122 ft | 458 kts | 328° |
| 2026-05-07 09:59 | 43.96809 | 21.71661 | 36110 ft | 459 kts | 328° |
| 2026-05-07 09:59 | 44.02497 | 21.67628 | 36106 ft | 459 kts | 328° |
| 2026-05-07 10:00 | 44.08196 | 21.63586 | 36104 ft | 460 kts | 328° |
| 2026-05-07 10:00 | 44.13896 | 21.59548 | 36113 ft | 460 kts | 328° |
| 2026-05-07 10:01 | 44.19604 | 21.55476 | 36094 ft | 461 kts | 328° |
| 2026-05-07 10:01 | 44.25325 | 21.51392 | 36091 ft | 462 kts | 328° |
| 2026-05-07 10:02 | 44.31049 | 21.47298 | 36082 ft | 462 kts | 328° |
| 2026-05-07 10:02 | 44.36792 | 21.43160 | 36093 ft | 461 kts | 328° |
| 2026-05-07 10:03 | 44.42466 | 21.39078 | 36093 ft | 462 kts | 328° |
| 2026-05-07 10:03 | 44.48206 | 21.34955 | 36086 ft | 462 kts | 328° |
| 2026-05-07 10:04 | 44.53925 | 21.30824 | 36077 ft | 462 kts | 328° |
| 2026-05-07 10:04 | 44.59619 | 21.26697 | 36080 ft | 461 kts | 328° |
| 2026-05-07 10:05 | 44.65300 | 21.22575 | 36090 ft | 460 kts | 328° |
| 2026-05-07 10:05 | 44.70994 | 21.18428 | 36076 ft | 460 kts | 328° |
| 2026-05-07 10:06 | 44.76686 | 21.14277 | 36066 ft | 461 kts | 328° |
| 2026-05-07 10:06 | 44.82371 | 21.10130 | 36061 ft | 461 kts | 328° |
| 2026-05-07 10:07 | 44.88075 | 21.05956 | 36062 ft | 461 kts | 328° |
| 2026-05-07 10:07 | 44.93767 | 21.01785 | 36070 ft | 462 kts | 327° |
| 2026-05-07 10:08 | 44.99470 | 20.97594 | 36056 ft | 462 kts | 327° |
| 2026-05-07 10:08 | 45.05211 | 20.93366 | 36070 ft | 462 kts | 327° |
| 2026-05-07 10:09 | 45.10876 | 20.89182 | 36063 ft | 462 kts | 327° |
| 2026-05-07 10:09 | 45.16602 | 20.84936 | 36075 ft | 462 kts | 327° |
| 2026-05-07 10:10 | 45.22301 | 20.80704 | 36076 ft | 462 kts | 327° |
| 2026-05-07 10:10 | 45.27994 | 20.76458 | 36078 ft | 462 kts | 327° |
| 2026-05-07 10:11 | 45.33692 | 20.72213 | 36071 ft | 462 kts | 327° |
| 2026-05-07 10:11 | 45.39393 | 20.67963 | 36072 ft | 462 kts | 327° |
| 2026-05-07 10:12 | 45.45075 | 20.63702 | 36068 ft | 462 kts | 327° |
| 2026-05-07 10:12 | 45.50759 | 20.59432 | 36078 ft | 462 kts | 327° |
| 2026-05-07 10:13 | 45.56452 | 20.55142 | 36072 ft | 462 kts | 327° |
| 2026-05-07 10:13 | 45.62133 | 20.50856 | 36060 ft | 462 kts | 327° |
| 2026-05-07 10:14 | 45.67762 | 20.46609 | 36058 ft | 462 kts | 327° |
| 2026-05-07 10:14 | 45.73347 | 20.42378 | 36057 ft | 462 kts | 327° |
| 2026-05-07 10:15 | 45.79032 | 20.38052 | 36061 ft | 464 kts | 327° |
| 2026-05-07 10:15 | 45.84737 | 20.33709 | 36036 ft | 465 kts | 327° |
| 2026-05-07 10:16 | 45.90455 | 20.29351 | 36045 ft | 466 kts | 327° |
| 2026-05-07 10:16 | 45.96178 | 20.24973 | 36047 ft | 466 kts | 327° |
| 2026-05-07 10:17 | 46.01905 | 20.20586 | 36060 ft | 466 kts | 327° |
| 2026-05-07 10:17 | 46.07639 | 20.16174 | 36051 ft | 467 kts | 327° |
| 2026-05-07 10:17 | 46.10508 | 20.13960 | 35800 ft | 469 kts | 327° |
| 2026-05-07 10:18 | 46.13474 | 20.11874 | 35541 ft | 472 kts | 334° |
| 2026-05-07 10:18 | 46.16645 | 20.10521 | 35287 ft | 479 kts | 345° |
| 2026-05-07 10:18 | 46.19986 | 20.10025 | 35034 ft | 486 kts | 356° |
| 2026-05-07 10:18 | 46.23370 | 20.10361 | 34801 ft | 490 kts | 2° |
| 2026-05-07 10:19 | 46.26767 | 20.10854 | 34509 ft | 491 kts | 2° |
| 2026-05-07 10:19 | 46.30196 | 20.11335 | 33317 ft | 500 kts | 1° |
| 2026-05-07 10:19 | 46.33676 | 20.11804 | 32393 ft | 500 kts | 1° |
| 2026-05-07 10:19 | 46.37129 | 20.12267 | 31626 ft | 497 kts | 1° |
| 2026-05-07 10:20 | 46.40554 | 20.12725 | 30760 ft | 497 kts | 1° |
| 2026-05-07 10:20 | 46.44007 | 20.13190 | 29806 ft | 498 kts | 1° |
| 2026-05-07 10:20 | 46.47455 | 20.13663 | 28726 ft | 498 kts | 2° |
| 2026-05-07 10:20 | 46.50911 | 20.14143 | 27856 ft | 495 kts | 2° |
| 2026-05-07 10:21 | 46.54315 | 20.14621 | 27161 ft | 488 kts | 2° |
| 2026-05-07 10:21 | 46.57678 | 20.15097 | 26477 ft | 483 kts | 2° |
| 2026-05-07 10:21 | 46.61002 | 20.15565 | 25802 ft | 477 kts | 2° |
| 2026-05-07 10:21 | 46.64291 | 20.16023 | 25152 ft | 472 kts | 2° |
| 2026-05-07 10:22 | 46.67544 | 20.16470 | 24520 ft | 467 kts | 2° |
| 2026-05-07 10:22 | 46.70762 | 20.16910 | 23904 ft | 462 kts | 2° |
| 2026-05-07 10:22 | 46.72922 | 20.17207 | 23474 ft | 459 kts | 2° |
| 2026-05-07 10:22 | 46.76086 | 20.17645 | 22766 ft | 455 kts | 3° |
| 2026-05-07 10:23 | 46.79220 | 20.18084 | 22089 ft | 450 kts | 3° |
| 2026-05-07 10:23 | 46.82317 | 20.18516 | 21430 ft | 445 kts | 3° |
| 2026-05-07 10:23 | 46.85388 | 20.18943 | 20780 ft | 441 kts | 3° |
| 2026-05-07 10:23 | 46.88428 | 20.19366 | 20143 ft | 438 kts | 4° |
| 2026-05-07 10:24 | 46.91453 | 20.19789 | 19552 ft | 435 kts | 4° |
| 2026-05-07 10:24 | 46.94449 | 20.20211 | 18979 ft | 432 kts | 4° |
| 2026-05-07 10:24 | 46.97429 | 20.20629 | 18449 ft | 428 kts | 4° |
| 2026-05-07 10:24 | 47.00391 | 20.21043 | 17882 ft | 425 kts | 4° |
| 2026-05-07 10:25 | 47.03319 | 20.21452 | 17339 ft | 422 kts | 4° |
| 2026-05-07 10:25 | 47.06227 | 20.21858 | 16800 ft | 418 kts | 4° |
| 2026-05-07 10:25 | 47.09107 | 20.22263 | 16266 ft | 414 kts | 4° |
| 2026-05-07 10:25 | 47.11956 | 20.22375 | 15763 ft | 406 kts | 350° |
| 2026-05-07 10:26 | 47.14587 | 20.21101 | 15250 ft | 395 kts | 327° |
| 2026-05-07 10:26 | 47.16631 | 20.18523 | 14715 ft | 384 kts | 305° |
| 2026-05-07 10:26 | 47.17922 | 20.15162 | 14137 ft | 376 kts | 292° |
| 2026-05-07 10:26 | 47.19020 | 20.11712 | 13073 ft | 370 kts | 292° |
| 2026-05-07 10:27 | 47.20081 | 20.08324 | 12343 ft | 356 kts | 292° |
| 2026-05-07 10:27 | 47.21075 | 20.05151 | 12199 ft | 328 kts | 291° |
| 2026-05-07 10:27 | 47.21993 | 20.02218 | 11998 ft | 306 kts | 291° |
| 2026-05-07 10:27 | 47.22864 | 19.99419 | 11496 ft | 297 kts | 291° |
| 2026-05-07 10:28 | 47.23714 | 19.96679 | 10896 ft | 293 kts | 291° |
| 2026-05-07 10:28 | 47.24567 | 19.93929 | 10294 ft | 289 kts | 291° |
| 2026-05-07 10:28 | 47.25400 | 19.91254 | 9691 ft | 286 kts | 291° |
| 2026-05-07 10:28 | 47.26226 | 19.88605 | 9055 ft | 283 kts | 291° |
| 2026-05-07 10:29 | 47.27043 | 19.85981 | 8444 ft | 280 kts | 291° |
| 2026-05-07 10:29 | 47.27849 | 19.83392 | 7849 ft | 277 kts | 291° |
| 2026-05-07 10:29 | 47.28649 | 19.80824 | 7257 ft | 274 kts | 291° |
| 2026-05-07 10:30 | 47.30227 | 19.75759 | 6050 ft | 270 kts | 291° |
| 2026-05-07 10:30 | 47.31006 | 19.73247 | 5424 ft | 268 kts | 291° |
| 2026-05-07 10:30 | 47.31770 | 19.70783 | 4991 ft | 260 kts | 291° |
| 2026-05-07 10:30 | 47.32517 | 19.68372 | 4662 ft | 258 kts | 291° |
| 2026-05-07 10:31 | 47.33257 | 19.65971 | 4336 ft | 257 kts | 291° |
| 2026-05-07 10:31 | 47.33985 | 19.63609 | 4170 ft | 249 kts | 291° |
| 2026-05-07 10:31 | 47.34653 | 19.61308 | 4032 ft | 239 kts | 283° |
| 2026-05-07 10:31 | 47.34781 | 19.58937 | 3961 ft | 231 kts | 259° |
| 2026-05-07 10:32 | 47.34261 | 19.56711 | 3716 ft | 232 kts | 237° |
| 2026-05-07 10:32 | 47.33217 | 19.55019 | 3574 ft | 216 kts | 223° |
| 2026-05-07 10:32 | 47.32121 | 19.53556 | 3478 ft | 210 kts | 224° |
| 2026-05-07 10:32 | 47.31057 | 19.52120 | 3388 ft | 204 kts | 225° |
| 2026-05-07 10:33 | 47.30285 | 19.50452 | 3278 ft | 200 kts | 258° |
| 2026-05-07 10:33 | 47.30476 | 19.48456 | 3164 ft | 202 kts | 300° |
| 2026-05-07 10:33 | 47.31399 | 19.46905 | 3063 ft | 199 kts | 309° |
| 2026-05-07 10:33 | 47.32324 | 19.45428 | 3006 ft | 194 kts | 308° |
| 2026-05-07 10:34 | 47.33232 | 19.43968 | 2946 ft | 192 kts | 309° |
| 2026-05-07 10:34 | 47.34137 | 19.42513 | 2765 ft | 192 kts | 308° |
| 2026-05-07 10:34 | 47.35031 | 19.41080 | 2554 ft | 185 kts | 308° |
| 2026-05-07 10:34 | 47.35875 | 19.39726 | 2293 ft | 174 kts | 308° |
| 2026-05-07 10:35 | 47.36668 | 19.38453 | 2058 ft | 159 kts | 307° |
| 2026-05-07 10:35 | 47.37364 | 19.37336 | 1875 ft | 143 kts | 306° |
| 2026-05-07 10:35 | 47.38029 | 19.36264 | 1689 ft | 137 kts | 306° |
| 2026-05-07 10:35 | 47.38666 | 19.35238 | 1494 ft | 135 kts | 306° |
| 2026-05-07 10:36 | 47.39303 | 19.34207 | 1288 ft | 140 kts | 307° |
| 2026-05-07 10:36 | 47.39963 | 19.33144 | 1114 ft | 142 kts | 307° |
| 2026-05-07 10:36 | 47.40629 | 19.32072 | 938 ft | 142 kts | 304° |
| 2026-05-07 10:36 | 47.41296 | 19.31004 | 764 ft | 142 kts | 306° |
| 2026-05-07 10:37 | 47.41961 | 19.29920 | 581 ft | 143 kts | 305° |
| 2026-05-07 10:37 | 47.42635 | 19.28840 | 448 ft | 137 kts | 306° |
| 2026-05-07 10:37 | 47.43162 | 19.27974 | 462 ft | 89 kts | 313° |
| 2026-05-07 10:37 | 47.43479 | 19.27467 | 471 ft | 54 kts | 312° |
| 2026-05-07 10:38 | 47.43684 | 19.27122 | 472 ft | 41 kts | 306° |
| 2026-05-07 10:38 | 47.43767 | 19.26762 | 463 ft | 28 kts | 282° |
| 2026-05-07 10:38 | 47.43789 | 19.26612 | 460 ft | 0 kts | 282° |
| 2026-05-07 10:39 | 47.43792 | 19.26588 | 459 ft | 5 kts | 282° |
| 2026-05-07 10:39 | 47.43802 | 19.26521 | 459 ft | 0 kts | 282° |
| 2026-05-07 10:39 | 47.43803 | 19.26511 | 459 ft | 0 kts | 281° |
| 2026-05-07 10:39 | 47.43805 | 19.26496 | 457 ft | 3 kts | 281° |
| 2026-05-07 10:40 | 47.43790 | 19.26466 | 458 ft | 6 kts | 223° |
| 2026-05-07 10:40 | 47.43722 | 19.26377 | 457 ft | 20 kts | 221° |
| 2026-05-07 10:40 | 47.43610 | 19.26230 | 457 ft | 24 kts | 221° |
| 2026-05-07 10:40 | 47.43480 | 19.26057 | 456 ft | 26 kts | 222° |
| 2026-05-07 10:41 | 47.43419 | 19.25954 | 457 ft | 8 kts | 265° |
| 2026-05-07 10:41 | 47.43395 | 19.25883 | 457 ft | 8 kts | 221° |
| 2026-05-07 10:41 | 47.43367 | 19.25845 | 456 ft | 3 kts | 222° |
| 2026-05-07 10:41 | 47.43360 | 19.25836 | 456 ft | 0 kts | 222° |